首页
METAR-TAF:

METAR-TAF

机场 :

巴利亚多利德, 西班牙

纬度: 41-43N, 经度: 004-51W, 海拔: 849米

当前天气观测

该预报发布于42分钟前的13:34 UTC
风速10节,风向西南
温度 10°C
湿度 93%
气压 1022 hPa
能見度: 4500
多云层高于800英尺
阴天层高于3200英尺
小雨

METAR: LEVD 291334Z 22010KT 4500 -RA BKN008 OVC032 10/09 Q1022

时间: 15:16 (14:16 UTC)

预报

该预报发布于3小时和16分钟前的11:00 UTC
预报有效从29日的 12点(UTC)到 30日的 12点(UTC)
风速12节,风向西南
能见度10公里或以上
散云层高于1000英尺
多云层高于4500英尺
几率 40% :
短暂存在
从 29日的 12点(UTC)到 29日的 17点(UTC)
能見度: 3500
多云层高于500英尺
雨, 轻雾
几率 40% :
短暂存在
从 30日的 06点(UTC)到 30日的 12点(UTC)
能見度: 4900
多云层高于900英尺
轻雾

TAF: LEVD 291100Z 2912/3012 23012KT 9999 SCT010 BKN045 TX11/2915Z TN08/3006Z PROB40 TEMPO 2912/2917 3500 RA BR BKN005 PROB40 TEMPO 3006/3012 4900 BR BKN009

超过4000个机场的气象观测和天气预报(METAR&TAF报告)。

可查询的气象台以黄色和红色小点在地图上表示。

将鼠标移到小点上方,可查看气象台名称。

然后点击查看天气观测和预报。

如需切换地图:点击带黑十字的绿色按钮放大地图;点击带横线的绿色按钮缩小地图;或者点击绿色箭头查看邻近地区的地图。


METAR-TAF: